Time;durP1;ratioP1;P1;durP2;ratioP2;P2;SDS_P1;SDS_P2;PMS_P1;PMS_P2;Temp;Humidity;BMP_temperature;BMP_pressure;BME280_temperature;BME280_humidity;BME280_pressure;Samples;Min_cycle;Max_cycle;Signal;HPM_P1;HPM_P2
2023/10/21 00:01:19;;;;;;;3.47;2.57;;;7.50;99.90;;;;;;4964302;28;20237;-67
2023/10/21 00:03:46;;;;;;;4.37;3.00;;;;;;;;;;4995705;28;20226;-68
2023/10/21 00:06:12;;;;;;;4.47;3.03;;;7.40;99.90;;;;;;5000851;28;20700;-67
2023/10/21 00:08:39;;;;;;;4.40;3.20;;;7.40;99.90;;;;;;4992943;28;20621;-67
2023/10/21 00:11:09;;;;;;;3.97;3.17;;;7.50;99.90;;;;;;4991589;28;20211;-67
2023/10/21 00:13:36;;;;;;;5.90;3.23;;;7.40;99.90;;;;;;4991635;28;20259;-67
2023/10/21 00:16:03;;;;;;;4.20;3.33;;;7.50;99.90;;;;;;4971013;28;20226;-67
2023/10/21 00:18:30;;;;;;;4.53;3.43;;;7.50;99.90;;;;;;4999950;28;20222;-67
2023/10/21 00:20:57;;;;;;;4.33;3.17;;;7.50;99.90;;;;;;5005894;28;20206;-67
2023/10/21 00:23:24;;;;;;;4.57;3.53;;;5.90;99.90;;;;;;4994994;28;20797;-67
2023/10/21 00:25:51;;;;;;;4.47;3.50;;;7.80;99.90;;;;;;4988855;28;20230;-67
2023/10/21 00:28:19;;;;;;;8.30;4.00;;;7.60;99.90;;;;;;4997918;28;20238;-67
2023/10/21 00:30:48;;;;;;;5.40;3.87;;;7.80;99.90;;;;;;4995541;28;20202;-67
2023/10/21 00:33:15;;;;;;;4.87;3.70;;;7.60;99.90;;;;;;4973054;28;20719;-67
2023/10/21 00:35:45;;;;;;;4.63;3.83;;;7.50;99.90;;;;;;5001355;28;20198;-67
2023/10/21 00:38:12;;;;;;;4.90;3.93;;;7.70;99.90;;;;;;5001853;28;20202;-67
2023/10/21 00:40:39;;;;;;;5.53;3.93;;;7.70;99.90;;;;;;4990042;28;20205;-67
2023/10/21 00:43:06;;;;;;;6.43;3.97;;;7.70;99.90;;;;;;5003322;28;20198;-67
2023/10/21 00:45:34;;;;;;;5.20;3.87;;;7.70;99.90;;;;;;4987501;28;20207;-67
2023/10/21 00:48:01;;;;;;;6.13;3.90;;;7.70;99.90;;;;;;4970064;28;20242;-67
2023/10/21 00:50:28;;;;;;;6.40;4.10;;;7.70;99.90;;;;;;4998247;28;20198;-67
2023/10/21 00:52:54;;;;;;;5.90;4.10;;;7.70;99.90;;;;;;5000077;28;20202;-67
2023/10/21 00:55:21;;;;;;;6.13;4.40;;;7.70;99.90;;;;;;4993625;28;20214;-67
2023/10/21 00:57:49;;;;;;;7.67;4.17;;;7.70;99.90;;;;;;4988445;28;20198;-67
2023/10/21 01:00:16;;;;;;;8.10;4.23;;;7.80;99.90;;;;;;4998365;28;20259;-67
2023/10/21 01:02:47;;;;;;;5.77;3.80;;;7.70;99.90;;;;;;4966332;28;20234;-68
2023/10/21 01:05:15;;;;;;;5.70;4.17;;;7.80;99.90;;;;;;4998502;28;20203;-67
2023/10/21 01:07:44;;;;;;;8.07;4.53;;;8.30;99.90;;;;;;5000246;28;24842;-67
2023/10/21 01:10:12;;;;;;;5.80;4.30;;;7.80;99.90;;;;;;4982354;28;20303;-67
2023/10/21 01:12:39;;;;;;;6.63;4.50;;;7.80;99.90;;;;;;4979871;28;20202;-67
2023/10/21 01:15:08;;;;;;;10.60;5.07;;;7.80;99.90;;;;;;4996201;28;20214;-67
2023/10/21 01:17:35;;;;;;;9.50;5.03;;;7.90;99.90;;;;;;4984459;28;20202;-67
2023/10/21 01:20:06;;;;;;;10.17;4.83;;;8.90;99.90;;;;;;4977040;28;20297;-68
2023/10/21 01:22:33;;;;;;;9.43;5.37;;;7.90;99.90;;;;;;5001842;28;20568;-67
2023/10/21 01:25:02;;;;;;;8.33;5.03;;;8.20;99.90;;;;;;4985104;28;20714;-67
2023/10/21 01:27:29;;;;;;;8.53;5.37;;;8.00;99.90;;;;;;4992871;28;20245;-67
2023/10/21 01:29:55;;;;;;;7.57;4.97;;;9.10;99.90;;;;;;4995207;28;20207;-67
2023/10/21 01:32:24;;;;;;;8.17;5.00;;;8.00;99.90;;;;;;4987051;28;20209;-67
2023/10/21 01:34:51;;;;;;;10.10;5.57;;;8.00;99.90;;;;;;4964003;28;20252;-67
2023/10/21 01:37:18;;;;;;;10.27;6.43;;;8.00;99.90;;;;;;4996767;28;20205;-67
2023/10/21 01:39:45;;;;;;;9.47;5.47;;;8.00;99.90;;;;;;4990006;28;20202;-67
2023/10/21 01:42:13;;;;;;;9.03;6.00;;;8.10;99.90;;;;;;4984509;28;20696;-67
2023/10/21 01:44:40;;;;;;;8.27;5.40;;;8.10;99.90;;;;;;4996107;28;20203;-67
2023/10/21 01:47:07;;;;;;;7.80;5.53;;;8.00;99.90;;;;;;4972968;28;20241;-67
2023/10/21 01:49:34;;;;;;;9.20;5.10;;;8.10;99.90;;;;;;4961043;28;20203;-68
2023/10/21 01:52:01;;;;;;;10.85;6.22;;;8.10;99.90;;;;;;4993220;28;20201;-67
2023/10/21 01:54:28;;;;;;;10.40;6.20;;;;;;;;;;4996914;28;20215;-67
2023/10/21 01:56:55;;;;;;;9.37;6.00;;;8.10;99.90;;;;;;4982687;28;20210;-67
2023/10/21 01:59:23;;;;;;;8.53;5.80;;;8.70;99.90;;;;;;4986005;28;20213;-67
2023/10/21 02:01:50;;;;;;;11.37;6.43;;;8.10;99.90;;;;;;4987120;28;20198;-67
2023/10/21 02:04:17;;;;;;;12.70;6.97;;;8.20;99.90;;;;;;4978050;28;20234;-67
2023/10/21 02:06:44;;;;;;;10.47;6.87;;;;;;;;;;4977951;28;20225;-67
2023/10/21 02:09:11;;;;;;;10.40;6.40;;;8.20;99.90;;;;;;4999651;28;20582;-67
2023/10/21 02:11:38;;;;;;;11.07;6.60;;;8.20;99.90;;;;;;4983591;28;20206;-67
2023/10/21 02:14:05;;;;;;;11.63;7.17;;;8.20;99.90;;;;;;4992590;28;20217;-67
2023/10/21 02:16:33;;;;;;;10.80;6.50;;;8.20;99.90;;;;;;4986283;28;20209;-67
2023/10/21 02:19:00;;;;;;;10.33;6.33;;;8.30;99.90;;;;;;4988652;28;20206;-68
2023/10/21 02:21:27;;;;;;;12.80;6.97;;;8.20;99.90;;;;;;4973947;28;20210;-68
2023/10/21 02:23:53;;;;;;;12.88;6.45;;;7.70;99.90;;;;;;4988232;28;20208;-67
2023/10/21 02:26:20;;;;;;;10.00;6.27;;;8.20;99.90;;;;;;5004753;28;20228;-67
2023/10/21 02:28:47;;;;;;;14.43;6.80;;;8.30;99.90;;;;;;4978839;28;20433;-67
2023/10/21 02:31:14;;;;;;;10.55;6.60;;;8.30;99.90;;;;;;4992700;28;20202;-68
2023/10/21 02:33:42;;;;;;;12.05;6.38;;;8.30;99.90;;;;;;4985627;28;20213;-68
2023/10/21 02:36:09;;;;;;;9.83;6.07;;;8.30;99.90;;;;;;4969650;28;20217;-68
2023/10/21 02:38:37;;;;;;;9.15;6.47;;;8.30;99.90;;;;;;4994574;28;20199;-67
2023/10/21 02:41:05;;;;;;;10.98;6.45;;;8.30;99.90;;;;;;4987125;28;20730;-68
2023/10/21 02:43:32;;;;;;;11.80;6.60;;;8.30;99.90;;;;;;4979871;28;20199;-68
2023/10/21 02:46:08;;;;;;;11.15;6.63;;;8.30;99.90;;;;;;4988718;28;20207;-67
2023/10/21 02:48:35;;;;;;;12.75;7.32;;;8.40;99.90;;;;;;4997777;28;20854;-67
2023/10/21 02:51:09;;;;;;;10.65;6.28;;;8.30;99.90;;;;;;4957259;28;20210;-68
2023/10/21 02:53:37;;;;;;;10.40;6.35;;;8.40;99.90;;;;;;4994219;28;20242;-67
2023/10/21 02:56:05;;;;;;;10.90;7.22;;;8.40;99.90;;;;;;4989287;28;20209;-68
2023/10/21 02:58:32;;;;;;;15.13;7.17;;;8.40;99.90;;;;;;4978985;28;20248;-68
2023/10/21 03:00:59;;;;;;;12.90;6.95;;;8.40;99.90;;;;;;4993465;28;20206;-68
2023/10/21 03:03:26;;;;;;;11.77;7.30;;;8.40;99.90;;;;;;4996591;28;20301;-67
2023/10/21 03:05:53;;;;;;;14.93;6.88;;;8.50;99.90;;;;;;4983755;28;20830;-68
2023/10/21 03:08:21;;;;;;;12.55;6.97;;;8.40;99.90;;;;;;4968289;28;20586;-68
2023/10/21 03:10:48;;;;;;;11.18;6.40;;;8.40;99.90;;;;;;4999213;28;20207;-67
2023/10/21 03:13:15;;;;;;;13.90;7.13;;;8.40;99.90;;;;;;4993891;28;20211;-67
2023/10/21 03:15:42;;;;;;;10.70;6.47;;;8.40;99.90;;;;;;4979616;28;20221;-68
2023/10/21 03:18:09;;;;;;;9.13;5.95;;;8.40;99.90;;;;;;4999067;28;20205;-68
2023/10/21 03:20:35;;;;;;;11.23;6.25;;;7.10;99.90;;;;;;4991258;28;20206;-68
2023/10/21 03:23:03;;;;;;;10.48;6.50;;;8.40;99.90;;;;;;4971375;28;20217;-67
2023/10/21 03:25:33;;;;;;;9.40;5.93;;;8.40;99.90;;;;;;5001096;28;20585;-67
2023/10/21 03:28:00;;;;;;;10.63;6.75;;;8.40;99.90;;;;;;4989195;28;20226;-68
2023/10/21 03:30:26;;;;;;;9.15;6.13;;;8.50;99.90;;;;;;4984988;28;21290;-67
2023/10/21 03:32:53;;;;;;;11.30;6.78;;;8.40;99.90;;;;;;5000239;28;20213;-68
2023/10/21 03:35:21;;;;;;;11.30;7.00;;;8.50;99.90;;;;;;5002270;28;20202;-67
2023/10/21 03:37:47;;;;;;;17.65;6.95;;;;;;;;;;4984246;28;20263;-68
2023/10/21 03:40:14;;;;;;;10.82;6.40;;;8.50;99.90;;;;;;4968586;28;20360;-68
2023/10/21 03:42:42;;;;;;;12.15;6.40;;;8.50;99.90;;;;;;5001409;28;20207;-68
2023/10/21 03:45:09;;;;;;;10.38;6.40;;;8.50;99.90;;;;;;4983834;28;20198;-67
2023/10/21 03:47:36;;;;;;;11.35;6.88;;;8.50;99.90;;;;;;4980331;28;20787;-67
2023/10/21 03:50:03;;;;;;;11.55;6.63;;;8.50;99.90;;;;;;4999898;28;20756;-67
2023/10/21 03:52:30;;;;;;;10.88;6.50;;;8.50;99.90;;;;;;4982393;28;20725;-68
2023/10/21 03:54:56;;;;;;;9.65;6.55;;;8.50;99.90;;;;;;4971604;28;20217;-68
2023/10/21 03:57:23;;;;;;;18.48;6.10;;;8.50;99.90;;;;;;4992967;28;20213;-68
2023/10/21 03:59:51;;;;;;;10.70;6.97;;;8.50;99.90;;;;;;4991595;28;20206;-68
2023/10/21 04:02:18;;;;;;;9.02;5.97;;;8.50;99.90;;;;;;4989864;28;20220;-68
2023/10/21 04:04:45;;;;;;;14.48;6.45;;;8.50;99.90;;;;;;4992050;28;20805;-68
2023/10/21 04:07:12;;;;;;;18.42;7.00;;;8.60;99.90;;;;;;4994688;28;20700;-68
2023/10/21 04:09:39;;;;;;;12.88;6.85;;;8.50;99.90;;;;;;4970623;28;20738;-68
2023/10/21 04:12:06;;;;;;;17.83;9.90;;;8.60;99.90;;;;;;5004903;28;20293;-67
2023/10/21 04:14:33;;;;;;;38.53;16.60;;;8.60;99.90;;;;;;4997764;28;20198;-68
2023/10/21 04:17:01;;;;;;;40.97;17.08;;;8.60;99.90;;;;;;4993381;28;20690;-68
2023/10/21 04:19:28;;;;;;;29.30;11.90;;;8.60;99.90;;;;;;4992229;28;20221;-68
2023/10/21 04:21:55;;;;;;;26.38;12.27;;;7.70;99.90;;;;;;5002608;28;20198;-67
2023/10/21 04:24:22;;;;;;;27.25;12.48;;;8.60;99.90;;;;;;4966416;28;20667;-67
2023/10/21 04:26:50;;;;;;;14.32;7.93;;;7.80;99.90;;;;;;4995487;28;20260;-68
2023/10/21 04:29:16;;;;;;;11.00;7.05;;;8.60;99.90;;;;;;5000919;28;20783;-70
2023/10/21 04:31:43;;;;;;;9.88;6.43;;;;;;;;;;4965953;28;20587;-68
2023/10/21 04:34:12;;;;;;;10.05;6.55;;;8.60;99.90;;;;;;4993096;28;20206;-68
2023/10/21 04:36:39;;;;;;;10.30;6.68;;;8.60;99.90;;;;;;4998801;28;20205;-67
2023/10/21 04:39:07;;;;;;;13.43;7.03;;;8.70;99.90;;;;;;4994867;28;20676;-68
2023/10/21 04:41:34;;;;;;;10.68;6.60;;;8.60;99.90;;;;;;4968132;28;20222;-68
2023/10/21 04:44:00;;;;;;;10.77;7.05;;;8.60;99.90;;;;;;4994193;28;20209;-68
2023/10/21 04:46:28;;;;;;;9.77;5.85;;;8.60;99.90;;;;;;4986399;28;20206;-68
2023/10/21 04:48:54;;;;;;;11.32;6.75;;;8.60;99.90;;;;;;4985539;28;20227;-68
2023/10/21 04:51:23;;;;;;;12.10;6.85;;;9.10;99.90;;;;;;4997134;28;20191;-68
2023/10/21 04:53:50;;;;;;;9.38;6.03;;;8.70;99.90;;;;;;4995376;28;20211;-68
2023/10/21 04:56:17;;;;;;;12.13;6.97;;;8.60;99.90;;;;;;4963849;28;20681;-68
2023/10/21 04:58:43;;;;;;;9.50;6.35;;;8.20;99.90;;;;;;4989994;28;20588;-68
2023/10/21 05:01:11;;;;;;;11.40;6.32;;;8.70;99.90;;;;;;4981370;28;20206;-68
2023/10/21 05:03:38;;;;;;;10.48;6.30;;;8.60;99.90;;;;;;4987850;28;20202;-68
2023/10/21 05:06:05;;;;;;;8.43;6.00;;;8.70;99.90;;;;;;4997398;28;20684;-68
2023/10/21 05:08:34;;;;;;;11.05;6.55;;;8.70;99.90;;;;;;4997141;28;20342;-68
2023/10/21 05:11:01;;;;;;;10.32;5.53;;;8.70;99.90;;;;;;4960440;28;20195;-68
2023/10/21 05:13:28;;;;;;;8.30;5.55;;;8.70;99.90;;;;;;4999615;28;20204;-68
2023/10/21 05:15:55;;;;;;;9.32;6.63;;;9.70;99.90;;;;;;4988761;28;20302;-67
2023/10/21 05:18:22;;;;;;;10.57;7.18;;;8.80;99.90;;;;;;4997353;28;20207;-68
2023/10/21 05:20:49;;;;;;;9.70;5.80;;;8.80;99.90;;;;;;4989926;28;20209;-68
2023/10/21 05:23:15;;;;;;;10.63;6.47;;;9.60;99.90;;;;;;4997985;28;20228;-68
2023/10/21 05:25:44;;;;;;;13.18;6.43;;;8.70;99.90;;;;;;4995196;28;20209;-67
2023/10/21 05:28:11;;;;;;;10.25;5.78;;;8.70;99.90;;;;;;4974315;28;21605;-68
2023/10/21 05:30:39;;;;;;;12.75;6.72;;;;;;;;;;4998518;28;20572;-68
2023/10/21 05:33:05;;;;;;;9.60;5.80;;;8.80;99.90;;;;;;4973928;28;20235;-68
2023/10/21 05:35:33;;;;;;;10.05;6.78;;;8.80;99.90;;;;;;4969428;28;20211;-68
2023/10/21 05:37:59;;;;;;;10.43;6.22;;;8.90;99.90;;;;;;4994410;28;20275;-68
2023/10/21 05:40:26;;;;;;;9.18;5.72;;;8.80;99.90;;;;;;5001322;28;20289;-68
2023/10/21 05:42:54;;;;;;;8.60;5.57;;;8.80;99.90;;;;;;4949481;28;20233;-67
2023/10/21 05:45:22;;;;;;;9.43;6.43;;;8.90;99.90;;;;;;4980394;28;20225;-68
2023/10/21 05:47:49;;;;;;;10.68;6.47;;;8.90;99.90;;;;;;4985305;28;20708;-68
2023/10/21 05:50:19;;;;;;;13.15;5.95;;;8.80;99.90;;;;;;4986086;28;20344;-68
2023/10/21 05:52:46;;;;;;;11.13;5.50;;;8.90;99.90;;;;;;5001294;28;20197;-68
2023/10/21 05:55:13;;;;;;;10.65;5.88;;;9.10;99.90;;;;;;5001241;28;20202;-68
2023/10/21 05:57:40;;;;;;;10.25;5.80;;;8.80;99.90;;;;;;4996329;28;20694;-67
2023/10/21 06:00:09;;;;;;;10.30;6.38;;;8.90;99.90;;;;;;4970326;28;20206;-68
2023/10/21 06:02:36;;;;;;;14.65;6.20;;;8.90;99.90;;;;;;5003291;28;20209;-67
2023/10/21 06:05:05;;;;;;;10.63;6.30;;;8.90;99.90;;;;;;4997200;28;20770;-68
2023/10/21 06:07:32;;;;;;;11.52;6.25;;;9.00;99.90;;;;;;4998184;28;20205;-68
2023/10/21 06:09:58;;;;;;;9.38;6.22;;;9.00;99.90;;;;;;4997326;28;20234;-68
2023/10/21 06:12:25;;;;;;;11.18;6.05;;;9.00;99.90;;;;;;4993212;28;20217;-68
2023/10/21 06:14:53;;;;;;;9.05;5.82;;;8.90;99.90;;;;;;4967615;28;20253;-67
2023/10/21 06:17:21;;;;;;;7.75;5.55;;;9.20;99.90;;;;;;4999039;28;20403;-68
2023/10/21 06:19:48;;;;;;;10.77;6.28;;;8.90;99.90;;;;;;4981113;28;20206;-68
2023/10/21 06:22:16;;;;;;;9.02;6.30;;;9.00;99.90;;;;;;4990431;28;20210;-68
2023/10/21 06:24:43;;;;;;;10.55;6.30;;;9.00;99.90;;;;;;5002023;28;20198;-67
2023/10/21 06:27:11;;;;;;;9.25;5.85;;;8.90;99.90;;;;;;4998836;28;20912;-67
2023/10/21 06:29:38;;;;;;;10.95;6.93;;;9.10;99.90;;;;;;4966482;28;20230;-68
2023/10/21 06:32:08;;;;;;;8.30;5.80;;;9.00;99.90;;;;;;5002627;28;20202;-67
2023/10/21 06:34:36;;;;;;;10.68;6.82;;;9.00;99.90;;;;;;4987238;28;20218;-68
2023/10/21 06:37:04;;;;;;;8.20;5.68;;;9.10;99.90;;;;;;4989477;28;20202;-68
2023/10/21 06:39:31;;;;;;;11.55;6.32;;;9.10;99.90;;;;;;4984808;28;20198;-68
2023/10/21 06:41:58;;;;;;;11.48;6.75;;;9.20;99.90;;;;;;5004048;28;20213;-68
2023/10/21 06:44:25;;;;;;;10.55;6.78;;;8.40;99.90;;;;;;4998922;28;20218;-68
2023/10/21 06:46:51;;;;;;;8.32;5.65;;;9.00;99.90;;;;;;4954250;28;20211;-68
2023/10/21 06:49:19;;;;;;;12.73;6.72;;;9.10;99.90;;;;;;4991094;28;20253;-68
2023/10/21 06:51:49;;;;;;;11.02;6.68;;;9.20;99.90;;;;;;4981232;28;20241;-68
2023/10/21 06:54:17;;;;;;;11.38;5.85;;;9.40;99.90;;;;;;4989822;28;20225;-68
2023/10/21 06:56:45;;;;;;;14.23;6.72;;;9.20;99.90;;;;;;4995009;28;20237;-67
2023/10/21 06:59:13;;;;;;;9.20;5.82;;;9.20;99.90;;;;;;5000643;28;20979;-67
2023/10/21 07:01:40;;;;;;;13.45;5.88;;;9.60;99.90;;;;;;4951723;28;20687;-68
2023/10/21 07:04:07;;;;;;;10.13;5.72;;;9.20;99.90;;;;;;4969576;28;20346;-68
2023/10/21 07:06:34;;;;;;;10.20;6.25;;;7.70;99.90;;;;;;4988527;28;20202;-68
2023/10/21 07:09:02;;;;;;;10.40;6.63;;;9.20;99.90;;;;;;4967524;28;20229;-68
2023/10/21 07:11:29;;;;;;;11.43;6.05;;;9.30;99.90;;;;;;5005308;28;20221;-68
2023/10/21 07:13:56;;;;;;;9.77;6.25;;;9.20;99.90;;;;;;4996505;28;20213;-68
2023/10/21 07:34:31;;;;;;;12.50;6.47;;;10.10;99.90;;;;;;5013527;27;21488;-67
2023/10/21 07:36:58;;;;;;;13.13;6.97;;;10.10;99.90;;;;;;5049404;28;20681;-66
2023/10/21 07:39:24;;;;;;;11.07;6.30;;;10.40;99.90;;;;;;5034366;28;20222;-67
2023/10/21 07:41:51;;;;;;;10.98;6.75;;;10.50;99.90;;;;;;5008088;28;20662;-67
2023/10/21 07:44:18;;;;;;;10.98;7.18;;;;;;;;;;5046846;28;20907;-68
2023/10/21 07:46:45;;;;;;;12.07;6.68;;;10.00;99.90;;;;;;5048518;28;20335;-67
2023/10/21 07:49:13;;;;;;;11.00;7.53;;;9.90;99.90;;;;;;5019075;28;20229;-68
2023/10/21 07:51:41;;;;;;;10.82;6.95;;;9.80;99.90;;;;;;5040615;28;21292;-67
2023/10/21 07:54:08;;;;;;;11.98;6.82;;;10.20;99.90;;;;;;5040888;28;20230;-67
2023/10/21 07:56:35;;;;;;;13.25;7.30;;;;;;;;;;5003996;28;20216;-68
2023/10/21 07:59:02;;;;;;;12.27;6.90;;;10.00;99.90;;;;;;5036899;28;20598;-68
2023/10/21 08:01:29;;;;;;;11.85;7.15;;;10.20;99.90;;;;;;5007179;28;20227;-68
2023/10/21 08:03:55;;;;;;;11.30;6.80;;;9.60;99.90;;;;;;5004651;28;20224;-67
2023/10/21 08:06:23;;;;;;;10.52;7.28;;;9.80;99.90;;;;;;5034433;28;20250;-67
2023/10/21 08:08:51;;;;;;;12.07;7.43;;;9.70;99.90;;;;;;5026553;28;20227;-68
2023/10/21 08:11:17;;;;;;;10.68;6.85;;;9.70;99.90;;;;;;5013921;28;20951;-67
2023/10/21 08:13:44;;;;;;;12.25;7.15;;;9.70;99.90;;;;;;5043346;28;20587;-67
2023/10/21 08:16:11;;;;;;;12.00;7.13;;;9.70;99.90;;;;;;5056210;28;20207;-68
2023/10/21 08:18:38;;;;;;;11.43;7.10;;;9.70;99.90;;;;;;5028423;28;20205;-68
2023/10/21 08:21:05;;;;;;;13.48;6.78;;;9.70;99.90;;;;;;5027482;28;20308;-67
2023/10/21 08:23:32;;;;;;;15.02;6.65;;;9.70;99.90;;;;;;5040914;28;20642;-67
2023/10/21 08:26:01;;;;;;;10.13;5.85;;;9.70;99.90;;;;;;5023292;28;20224;-67
2023/10/21 08:28:28;;;;;;;11.65;7.07;;;9.90;99.90;;;;;;5030348;28;20196;-67
2023/10/21 08:30:55;;;;;;;11.65;6.68;;;9.70;99.90;;;;;;5039273;28;20218;-67
2023/10/21 08:33:22;;;;;;;13.57;6.82;;;9.70;99.90;;;;;;5015916;28;20845;-67
2023/10/21 08:35:49;;;;;;;9.77;6.75;;;10.90;99.90;;;;;;5007032;28;20667;-67
2023/10/21 08:38:15;;;;;;;13.93;7.70;;;9.80;99.90;;;;;;5012065;28;20315;-67
2023/10/21 08:40:46;;;;;;;10.93;7.03;;;9.80;99.90;;;;;;5020462;28;20212;-67
2023/10/21 08:43:17;;;;;;;9.75;6.40;;;9.80;99.90;;;;;;4989231;28;20233;-67
2023/10/21 08:45:45;;;;;;;9.93;6.53;;;9.70;99.90;;;;;;5037542;28;20197;-67
2023/10/21 08:48:12;;;;;;;11.27;6.28;;;9.80;99.90;;;;;;5027878;28;20208;-67
2023/10/21 08:50:40;;;;;;;13.85;6.90;;;10.20;99.90;;;;;;5008818;28;20228;-67
2023/10/21 08:53:11;;;;;;;9.95;6.85;;;9.90;99.90;;;;;;5013094;28;20201;-67
2023/10/21 08:55:39;;;;;;;7.80;5.80;;;9.90;99.90;;;;;;5026599;28;20201;-67
2023/10/21 08:58:06;;;;;;;11.35;6.72;;;9.90;99.90;;;;;;4980993;28;20217;-67
2023/10/21 09:00:34;;;;;;;12.85;7.00;;;9.90;99.90;;;;;;5026061;28;20279;-67
2023/10/21 09:03:03;;;;;;;9.13;6.38;;;10.00;99.90;;;;;;5034503;28;20791;-68
2023/10/21 09:05:30;;;;;;;13.38;6.93;;;10.00;99.90;;;;;;5027928;28;20201;-67
2023/10/21 09:07:58;;;;;;;14.88;7.07;;;10.00;99.90;;;;;;5000166;28;20233;-67
2023/10/21 09:10:25;;;;;;;13.70;6.25;;;10.10;99.90;;;;;;5002095;28;20221;-67
2023/10/21 09:12:52;;;;;;;10.38;6.85;;;;;;;;;;4994619;28;20231;-68
2023/10/21 09:15:21;;;;;;;9.05;6.20;;;10.20;99.90;;;;;;5018514;28;20244;-67
2023/10/21 09:17:52;;;;;;;9.43;6.65;;;10.20;99.90;;;;;;5037704;28;20217;-67
2023/10/21 09:20:21;;;;;;;9.07;6.63;;;10.00;99.90;;;;;;5025224;28;23280;-67
2023/10/21 09:22:51;;;;;;;8.93;5.90;;;10.10;99.90;;;;;;5020568;28;20252;-67
2023/10/21 09:25:19;;;;;;;10.63;6.57;;;10.20;99.90;;;;;;5015190;28;20604;-67
2023/10/21 09:27:49;;;;;;;8.45;5.43;;;10.40;99.90;;;;;;5010838;28;20230;-67
2023/10/21 09:30:17;;;;;;;9.98;5.93;;;10.20;99.90;;;;;;5007560;28;20252;-67
2023/10/21 09:32:46;;;;;;;9.80;6.05;;;10.20;99.90;;;;;;5034466;28;21011;-67
2023/10/21 09:35:26;;;;;;;8.15;5.53;;;10.30;99.90;;;;;;5039775;28;20221;-67
2023/10/21 09:37:53;;;;;;;7.38;5.72;;;10.20;99.90;;;;;;4999161;28;20216;-67
2023/10/21 09:40:24;;;;;;;11.90;5.45;;;10.10;99.90;;;;;;5006620;28;20786;-67
2023/10/21 09:42:52;;;;;;;10.40;6.07;;;10.50;99.90;;;;;;5008654;28;20225;-67
2023/10/21 09:45:19;;;;;;;8.90;5.68;;;10.50;99.90;;;;;;4992382;28;21179;-67
2023/10/21 09:47:47;;;;;;;8.35;5.50;;;10.50;99.90;;;;;;5004980;28;20221;-67
2023/10/21 09:50:16;;;;;;;8.18;5.68;;;10.60;99.90;;;;;;5024051;28;20212;-68
2023/10/21 09:52:55;;;;;;;9.95;5.13;;;10.60;99.90;;;;;;4989375;28;20225;-67
2023/10/21 09:55:25;;;;;;;6.65;4.88;;;9.70;99.90;;;;;;5003146;28;20725;-67
2023/10/21 09:57:54;;;;;;;8.05;5.45;;;10.70;99.90;;;;;;4989738;28;20216;-67
2023/10/21 10:00:21;;;;;;;11.38;5.40;;;10.70;99.90;;;;;;4997854;28;20229;-68
2023/10/21 10:02:48;;;;;;;6.70;5.22;;;10.70;99.90;;;;;;5024419;28;20232;-67
2023/10/21 10:05:16;;;;;;;7.72;5.38;;;10.70;99.90;;;;;;5034256;28;20212;-67
2023/10/21 10:07:45;;;;;;;9.00;6.32;;;10.70;99.90;;;;;;5008114;28;20221;-67
2023/10/21 10:10:14;;;;;;;7.47;5.22;;;10.70;99.90;;;;;;5013830;28;20273;-67
2023/10/21 10:12:45;;;;;;;8.48;5.57;;;10.80;99.90;;;;;;5002760;28;20208;-68
2023/10/21 10:15:33;;;;;;;7.68;5.22;;;10.50;99.90;;;;;;4990041;28;20247;-68
2023/10/21 10:18:02;;;;;;;7.38;5.35;;;11.00;99.90;;;;;;5005096;28;20229;-67
2023/10/21 10:20:30;;;;;;;7.05;5.47;;;11.10;99.90;;;;;;5019994;28;20813;-67
2023/10/21 10:23:00;;;;;;;8.75;4.85;;;11.80;99.90;;;;;;5020655;28;20235;-67
2023/10/21 10:25:32;;;;;;;8.13;4.85;;;11.20;99.90;;;;;;5019463;28;21058;-67
2023/10/21 10:28:04;;;;;;;6.47;4.60;;;11.40;99.90;;;;;;5016151;28;20256;-67
2023/10/21 10:30:31;;;;;;;7.07;5.35;;;11.40;99.90;;;;;;5022945;28;20227;-67
2023/10/21 10:33:06;;;;;;;8.90;5.45;;;11.30;99.90;;;;;;4999578;28;20232;-67
2023/10/21 10:35:37;;;;;;;6.88;4.85;;;11.70;99.90;;;;;;5005175;28;20287;-68
2023/10/21 10:38:05;;;;;;;9.23;5.43;;;11.30;99.90;;;;;;5024044;28;20726;-68
2023/10/21 10:40:35;;;;;;;8.70;5.95;;;12.00;99.90;;;;;;5012502;28;20951;-68
2023/10/21 10:43:03;;;;;;;7.72;5.63;;;11.50;99.90;;;;;;4999941;28;20225;-67
2023/10/21 10:45:33;;;;;;;8.02;5.60;;;11.60;99.90;;;;;;5013493;28;20230;-67
2023/10/21 10:48:02;;;;;;;6.47;5.45;;;11.70;99.90;;;;;;4989626;28;20595;-67
2023/10/21 10:50:29;;;;;;;9.40;5.55;;;11.80;99.90;;;;;;5014032;28;20247;-69
2023/10/21 10:52:56;;;;;;;9.05;5.75;;;11.90;99.90;;;;;;5007143;28;20252;-68
2023/10/21 10:55:23;;;;;;;9.45;5.65;;;13.00;99.90;;;;;;5006278;28;20216;-67
2023/10/21 10:57:52;;;;;;;9.45;5.78;;;12.00;99.90;;;;;;5000114;28;20231;-68
2023/10/21 11:00:22;;;;;;;8.32;5.78;;;12.00;99.90;;;;;;5011554;28;20232;-68
2023/10/21 11:02:50;;;;;;;8.38;5.50;;;12.00;99.90;;;;;;4987197;28;20962;-68
2023/10/21 11:05:19;;;;;;;7.75;5.28;;;12.10;99.90;;;;;;5012899;28;20263;-68
2023/10/21 11:07:47;;;;;;;8.60;5.97;;;12.00;99.90;;;;;;5028406;28;20232;-67
2023/10/21 11:10:19;;;;;;;9.73;5.57;;;12.10;99.90;;;;;;5011661;28;20201;-67
2023/10/21 11:12:48;;;;;;;7.72;5.40;;;12.10;99.90;;;;;;4993752;28;20725;-67
2023/10/21 11:15:17;;;;;;;6.78;5.20;;;12.20;99.90;;;;;;4998460;28;20833;-68
2023/10/21 11:17:46;;;;;;;12.10;5.65;;;12.30;99.90;;;;;;4999407;28;20228;-67
2023/10/21 11:20:14;;;;;;;8.73;6.20;;;12.30;99.90;;;;;;5000711;28;20224;-68
2023/10/21 11:22:41;;;;;;;11.48;6.13;;;12.40;99.90;;;;;;5026358;28;20217;-67
2023/10/21 11:25:08;;;;;;;11.60;5.95;;;12.40;99.90;;;;;;5007267;28;20233;-68
2023/10/21 11:27:36;;;;;;;8.38;6.28;;;12.50;99.90;;;;;;5014909;28;21108;-68
2023/10/21 11:30:07;;;;;;;7.00;5.53;;;12.50;99.90;;;;;;5003484;28;21020;-68
2023/10/21 11:32:37;;;;;;;8.48;5.55;;;12.60;99.90;;;;;;4983033;28;20232;-68
2023/10/21 11:35:05;;;;;;;8.32;6.22;;;12.60;99.90;;;;;;5017406;28;20220;-68
2023/10/21 11:37:32;;;;;;;5.97;4.72;;;12.60;99.90;;;;;;4994854;28;20361;-68
2023/10/21 11:39:59;;;;;;;9.27;5.38;;;12.70;99.90;;;;;;5025028;28;20566;-68
2023/10/21 11:42:27;;;;;;;7.97;5.18;;;12.70;99.90;;;;;;5002688;28;20225;-68
2023/10/21 11:44:57;;;;;;;9.13;5.20;;;12.80;99.90;;;;;;5004374;28;20224;-68
2023/10/21 11:47:26;;;;;;;6.88;5.22;;;12.90;99.90;;;;;;5025540;28;20291;-68
2023/10/21 11:49:55;;;;;;;6.68;5.32;;;12.90;99.90;;;;;;4994755;28;20225;-68
2023/10/21 11:52:23;;;;;;;8.77;5.75;;;12.80;99.90;;;;;;4993380;28;20232;-67
2023/10/21 11:55:21;;;;;;;7.75;4.97;;;12.90;99.90;;;;;;5012237;28;20228;-68
2023/10/21 12:14:56;;;;;;;11.02;5.57;;;13.70;99.90;;;;;;5005542;28;20774;-68
2023/10/21 12:20:44;;;;;;;7.93;5.50;;;13.40;99.90;;;;;;4955946;28;20230;-68
2023/10/21 12:31:45;;;;;;;9.90;5.35;;;13.30;99.90;;;;;;4997610;28;20353;-68
2023/10/21 12:37:28;;;;;;;6.93;5.13;;;;;;;;;;4995991;28;20262;-68
2023/10/21 12:40:21;;;;;;;8.00;6.07;;;13.30;99.90;;;;;;5037725;28;20224;-68
2023/10/21 12:42:46;;;;;;;7.32;5.10;;;13.20;99.90;;;;;;5042917;28;20286;-68
2023/10/21 12:45:18;;;;;;;7.20;5.68;;;13.20;99.90;;;;;;5013761;28;20235;-68
2023/10/21 12:47:48;;;;;;;6.82;5.15;;;13.20;99.90;;;;;;5028564;28;21141;-68
2023/10/21 12:50:15;;;;;;;6.65;4.63;;;13.20;99.90;;;;;;4999950;28;20618;-69
2023/10/21 12:52:43;;;;;;;7.18;3.97;;;13.20;99.90;;;;;;5035397;28;20197;-68
2023/10/21 12:55:11;;;;;;;9.07;2.50;;;13.00;99.90;;;;;;5030187;28;20239;-69
2023/10/21 12:57:38;;;;;;;6.07;3.45;;;12.90;99.90;;;;;;5036636;28;20231;-68
2023/10/21 13:00:07;;;;;;;13.20;3.78;;;12.60;99.90;;;;;;5018206;28;20366;-69
2023/10/21 13:02:35;;;;;;;3.35;2.80;;;12.90;99.90;;;;;;5024018;28;20228;-69
2023/10/21 13:05:04;;;;;;;3.80;2.58;;;13.00;99.90;;;;;;5026820;28;20237;-68
2023/10/21 13:07:31;;;;;;;8.80;2.45;;;13.00;99.90;;;;;;5002835;28;20209;-68
2023/10/21 13:09:59;;;;;;;6.30;3.10;;;13.00;99.90;;;;;;5024592;28;20232;-68
2023/10/21 13:12:27;;;;;;;5.90;2.75;;;13.00;99.90;;;;;;5040463;28;20417;-69
2023/10/21 13:14:54;;;;;;;2.95;2.38;;;13.00;99.90;;;;;;5028815;28;20196;-68
2023/10/21 13:17:21;;;;;;;2.22;2.03;;;13.10;99.90;;;;;;5003294;28;20232;-68
2023/10/21 13:19:48;;;;;;;2.90;2.47;;;13.10;99.90;;;;;;5023067;28;20220;-69
2023/10/21 13:22:15;;;;;;;2.55;1.77;;;13.20;99.90;;;;;;4995080;28;20227;-69
2023/10/21 13:24:42;;;;;;;2.50;2.30;;;13.30;99.90;;;;;;5022550;28;20800;-68
2023/10/21 13:27:09;;;;;;;2.40;2.20;;;13.40;99.90;;;;;;5026992;28;26177;-68
2023/10/21 13:29:38;;;;;;;2.42;2.20;;;13.60;99.90;;;;;;5025726;28;20215;-68
2023/10/21 13:32:07;;;;;;;4.03;2.47;;;13.30;99.90;;;;;;4991312;28;20253;-68
2023/10/21 13:34:34;;;;;;;3.08;2.17;;;13.60;99.90;;;;;;5025341;28;23054;-68
2023/10/21 13:37:01;;;;;;;2.25;2.05;;;17.40;99.90;;;;;;4985393;28;20323;-69
2023/10/21 13:39:29;;;;;;;5.00;2.35;;;13.60;99.90;;;;;;5019486;28;21343;-68
2023/10/21 13:41:55;;;;;;;2.53;2.33;;;13.70;99.90;;;;;;5022029;28;20232;-68
2023/10/21 13:44:22;;;;;;;4.80;2.47;;;13.80;99.90;;;;;;5030072;28;20974;-68